Latest Weather Observations for Wilcannia Airport

IDN60801

Issued at 5:35 pm EDT Wednesday 26 November 2014 (issued every 30 minutes, with the page automatically refreshed every 10 minutes)

About weather observations | Map of weather stations | Latest weather observations for NSW | Other Formats
Station Details ID: 046012 Name: WILCANNIA AERODROME AWS Lat: -31.52 Lon: 143.38 Height: 94.3 m
Data from the previous 72 hours. | See also: Recent months for locations in New South Wales
Date/Time
EDT
Temp
°C
App
Temp
°C
Dew
Point
Rel
Hum
%
Delta-T
°C
Wind Press
QNH
hPa
Press
MSL
hPa
Rain
since 9 am
mm
Dir
 
Spd
km/h
Gust
km/h
Spd
kts
Gust
kts
26/05:30pm 30.3 24.0 -1.2 13 14.8 S 22 35 12 19 1016.1 1015.7 0.0
26/05:00pm 30.3 23.6 -1.2 13 14.8 S 24 33 13 18 1016.3 1015.9 0.0
26/04:30pm 30.4 24.1 -1.1 13 14.9 S 22 32 12 17 1016.4 1016.0 0.0
26/04:00pm 30.2 24.2 -1.2 13 14.7 SSE 20 37 11 20 1016.8 1016.4 0.0
26/03:30pm 30.6 24.9 -0.9 13 14.9 S 19 32 10 17 1017.0 1016.6 0.0
26/03:00pm 30.2 24.4 -1.2 13 14.7 SSW 19 26 10 14 1017.6 1017.2 0.0
26/02:30pm 29.5 22.8 -0.8 14 14.3 SSW 24 33 13 18 1017.8 1017.4 0.0
26/02:00pm 29.3 24.1 0.0 15 13.9 SSE 17 30 9 16 1018.2 1017.8 0.0
26/01:30pm 28.2 24.1 0.0 16 13.3 SSE 11 20 6 11 1018.6 1018.2 0.0
26/01:00pm 28.3 22.2 0.1 16 13.3 SSE 22 32 12 17 1019.0 1018.6 0.0
26/12:30pm 26.9 22.2 0.6 18 12.5 SE 15 32 8 17 1019.4 1019.0 0.0
26/12:00pm 26.2 20.4 0.0 18 12.2 SSE 20 30 11 16 1019.8 1019.4 0.0
26/11:30am 26.5 21.7 2.4 21 11.8 SSE 17 28 9 15 1020.0 1019.6 0.0
26/11:00am 25.4 20.9 2.2 22 11.2 SE 15 26 8 14 1020.3 1019.9 0.0
26/10:30am 25.4 20.9 2.2 22 11.2 ESE 15 20 8 11 1020.4 1020.0 0.0
26/10:00am 24.1 19.0 2.9 25 10.2 SSE 19 26 10 14 1020.3 1019.9 0.0
26/09:30am 23.5 19.1 2.9 26 9.9 SSW 15 22 8 12 1020.1 1019.7 0.0
26/09:00am 22.9 18.1 2.4 26 9.7 ESE 17 22 9 12 1020.1 1019.7 0.0
26/08:30am 21.7 17.7 2.9 29 9.0 ESE 13 19 7 10 1019.9 1019.5 0.0
26/08:00am 20.6 17.0 2.9 31 8.3 SE 11 19 6 10 1019.5 1019.1 0.0
26/07:30am 17.6 16.6 5.5 45 5.9 CALM 0 0 0 0 1019.1 1018.7 0.0
26/07:00am 13.5 11.4 5.9 60 3.6 ESE 6 7 3 4 1018.9 1018.5 0.0
26/06:30am 11.3 8.8 4.5 63 3.1 E 7 9 4 5 1018.6 1018.2 0.0
26/06:00am 11.2 8.2 4.0 61 3.2 ENE 9 13 5 7 1018.6 1018.2 0.0
26/05:30am 13.4 9.3 4.3 54 4.2 E 15 19 8 10 1018.3 1017.9 0.0
26/05:00am 13.1 9.6 3.5 52 4.3 SE 11 15 6 8 1018.0 1017.6 0.0
26/04:30am 13.5 10.0 3.3 50 4.6 S 11 13 6 7 1017.8 1017.4 0.0
26/04:00am 14.4 10.4 2.9 46 5.2 S 13 15 7 8 1017.8 1017.4 0.0
26/03:30am 15.0 11.0 2.9 44 5.5 SE 13 15 7 8 1018.0 1017.6 0.0
26/03:00am 16.5 12.4 2.5 39 6.3 SSE 13 19 7 10 1018.1 1017.7 0.0
26/02:30am 17.5 13.0 1.9 35 7.0 SE 15 19 8 10 1018.2 1017.8 0.0
26/02:00am 17.8 13.2 1.7 34 7.2 SE 15 20 8 11 1018.7 1018.3 0.0
26/01:30am 18.1 13.1 1.2 32 7.6 SSE 17 22 9 12 1018.8 1018.4 0.0
26/01:00am 18.0 13.0 1.1 32 7.5 SE 17 24 9 13 1018.9 1018.5 0.0
26/12:30am 17.5 13.1 0.6 32 7.4 SSE 13 17 7 9 1019.3 1018.9 0.0
26/12:00am 17.8 13.8 0.5 31 7.6 SSE 11 15 6 8 1019.4 1019.0 0.0
 
Date/Time
EDT
Temp
°C
App
Temp
°C
Dew
Point
Rel
Hum
%
Delta-T
°C
Wind Press
QNH
hPa
Press
MSL
hPa
Rain
since 9 am
mm
Dir
 
Spd
km/h
Gust
km/h
Spd
kts
Gust
kts
25/11:30pm 18.7 14.3 0.3 29 8.1 SSE 13 15 7 8 1019.4 1019.0 0.0
25/11:00pm 19.0 14.6 0.1 28 8.3 S 13 15 7 8 1019.3 1018.9 0.0
25/10:30pm 19.3 14.5 0.4 28 8.4 S 15 17 8 9 1019.1 1018.7 0.0
25/10:00pm 19.3 15.3 0.4 28 8.4 S 11 13 6 7 1019.1 1018.7 0.0
25/09:30pm 20.7 16.2 0.0 25 9.2 S 13 17 7 9 1018.8 1018.4 0.0
25/09:00pm 21.9 17.0 -0.8 22 10.1 S 15 17 8 9 1018.3 1017.9 0.0
25/08:30pm 23.2 18.6 -1.0 20 10.8 S 13 20 7 11 1018.0 1017.6 0.0
25/08:00pm 24.8 19.2 -2.7 16 12.0 S 17 24 9 13 1017.7 1017.3 0.0
25/07:30pm 26.1 20.9 -2.5 15 12.7 SSE 15 24 8 13 1017.4 1017.0 0.0
25/07:00pm 26.6 21.1 -2.1 15 12.9 SSE 17 22 9 12 1017.1 1016.7 0.0
25/06:30pm 27.0 21.9 -1.8 15 13.1 SSE 15 20 8 11 1016.9 1016.5 0.0
25/06:00pm 27.2 21.8 -1.7 15 13.1 SE 17 26 9 14 1016.9 1016.5 0.0
25/05:30pm 26.8 20.9 -2.0 15 13.0 SE 19 26 10 14 1017.2 1016.8 0.0
25/05:00pm 27.0 21.3 -0.9 16 12.9 SSE 19 32 10 17 1017.4 1017.0 0.0
25/04:30pm 26.6 21.2 -1.3 16 12.7 SSE 17 26 9 14 1017.7 1017.3 0.0
25/04:00pm 26.7 21.3 -1.2 16 12.8 SSE 17 30 9 16 1017.8 1017.4 0.0
25/03:30pm 26.2 19.8 -1.6 16 12.6 S 22 30 12 16 1018.2 1017.8 0.0
25/03:00pm 25.9 21.1 0.5 19 11.9 SSE 15 26 8 14 1018.4 1018.0 0.0
25/02:30pm 25.7 20.3 1.1 20 11.7 SE 19 35 10 19 1018.8 1018.4 0.0
25/02:00pm 24.9 20.7 1.7 22 11.0 S 13 26 7 14 1019.1 1018.7 0.0
25/01:30pm 24.0 18.4 1.0 22 10.7 SE 20 28 11 15 1019.4 1019.0 0.0
25/01:00pm 23.8 18.5 2.0 24 10.3 SSE 19 30 10 16 1019.8 1019.4 0.0
25/12:30pm 22.8 17.6 2.3 26 9.7 SE 19 30 10 16 1020.0 1019.6 0.0
25/12:00pm 22.1 16.8 2.8 28 9.2 SSE 20 33 11 18 1020.1 1019.7 0.0
25/11:30am 21.6 16.1 4.2 32 8.5 SSE 22 35 12 19 1020.3 1019.9 0.0
25/11:00am 20.6 15.4 3.8 33 8.0 SSE 20 32 11 17 1020.5 1020.1 0.0
25/10:30am 19.4 14.5 5.1 39 7.0 SSE 20 30 11 16 1020.8 1020.4 0.0
25/10:00am 18.4 12.7 4.9 41 6.5 SE 24 30 13 16 1020.6 1020.2 0.0
25/09:30am 17.8 12.8 6.3 47 5.7 SSE 22 30 12 16 1020.7 1020.3 0.0
25/09:00am 16.2 10.8 6.3 52 4.8 SSE 24 33 13 18 1020.5 1020.1 6.4
25/08:30am 15.4 10.0 6.4 55 4.4 SSE 24 32 13 17 1020.2 1019.8 6.4
25/08:00am 15.1 9.3 6.1 55 4.3 S 26 37 14 20 1019.8 1019.4 6.4
25/07:30am 14.3 9.7 6.4 59 3.8 S 20 30 11 16 1019.4 1019.0 6.4
25/07:00am 14.1 9.7 6.7 61 3.6 S 19 26 10 14 1018.9 1018.5 6.4
25/06:30am 13.6 8.9 6.0 60 3.6 S 20 30 11 16 1018.4 1018.0 6.4
25/06:00am 13.9 8.8 6.0 59 3.8 S 22 32 12 17 1017.6 1017.2 6.4
25/05:30am 14.5 9.0 5.8 56 4.2 S 24 33 13 18 1017.3 1016.9 6.4
25/05:00am 15.1 8.7 5.3 52 4.7 S 28 35 15 19 1017.0 1016.6 6.4
25/04:30am 15.6 9.7 5.8 52 4.7 SSW 26 35 14 19 1016.8 1016.4 6.4
25/04:00am 16.4 10.5 5.7 49 5.2 S 26 35 14 19 1016.6 1016.2 6.4
25/03:30am 17.2 11.0 6.1 48 5.4 S 28 44 15 24 1016.1 1015.7 6.4
25/03:00am 18.0 14.0 10.4 61 4.1 S 22 32 12 17 1015.8 1015.4 6.4
25/02:30am 18.7 13.6 10.5 59 4.4 S 28 39 15 21 1015.9 1015.5 6.4
25/02:00am 19.0 14.5 11.3 61 4.2 S 26 37 14 20 1015.9 1015.5 6.4
25/01:30am 19.4 15.2 12.4 64 3.9 S 26 37 14 20 1015.8 1015.4 6.4
25/01:00am 20.0 15.2 13.0 64 4.0 S 30 50 16 27 1015.4 1015.0 6.4
25/12:55am 20.2 15.2 13.4 65 3.9 S 32 50 17 27 1015.5 1015.1 6.4
25/12:30am 21.1 19.5 17.5 80 2.2 SSW 22 30 12 16 1015.2 1014.8 6.4
25/12:00am 21.4 22.0 19.5 89 1.2 SSW 15 20 8 11 1014.4 1013.9 6.4
 
Date/Time
EDT
Temp
°C
App
Temp
°C
Dew
Point
Rel
Hum
%
Delta-T
°C
Wind Press
QNH
hPa
Press
MSL
hPa
Rain
since 9 am
mm
Dir
 
Spd
km/h
Gust
km/h
Spd
kts
Gust
kts
24/11:30pm 21.4 22.8 19.5 89 1.2 S 11 15 6 8 1014.2 1013.7 6.4
24/11:00pm 21.4 23.4 19.9 91 1.0 S 9 13 5 7 1013.4 1012.9 6.4
24/10:30pm 21.2 22.6 19.5 90 1.1 SSW 11 13 6 7 1013.8 1013.3 6.4
24/10:00pm 21.0 22.7 19.3 90 1.1 S 9 11 5 6 1013.4 1012.9 6.4
24/09:30pm 20.7 21.8 18.8 89 1.2 SSW 11 17 6 9 1013.2 1012.7 6.4
24/09:00pm 20.7 21.7 19.5 93 0.8 NW 13 19 7 10 1014.1 1013.6 5.4
24/08:30pm 20.6 20.4 19.4 93 0.8 WSW 19 30 10 16 1012.7 1012.3 4.4
24/08:24pm 20.2 18.0 18.7 91 0.9 SW 28 43 15 23 1012.6 1012.2 3.8
24/08:00pm 25.2 22.1 17.4 62 4.9 SSW 30 43 16 23 1011.7 1011.3 0.2
24/07:46pm 26.2 21.5 15.9 53 6.3 SSW 35 54 19 29 1010.8 1010.4 0.2
24/07:30pm 28.7 24.5 15.6 45 8.1 SW 32 46 17 25 1010.0 1009.6 0.2
24/07:00pm 30.0 25.7 15.3 41 9.1 SSW 32 41 17 22 1009.0 1008.6 0.2
24/06:30pm 32.9 29.5 12.5 29 12.2 NW 22 32 12 17 1007.5 1007.1 0.2
24/06:00pm 33.2 28.8 12.8 29 12.3 WNW 28 37 15 20 1007.8 1007.4 0.2
24/05:30pm 33.2 28.4 12.8 29 12.3 NW 30 39 16 21 1007.7 1007.3 0.2
24/05:00pm 33.0 28.1 13.6 31 11.8 NW 32 43 17 23 1007.3 1006.9 0.2
24/04:30pm 32.5 29.2 15.1 35 10.8 NW 26 37 14 20 1007.6 1007.2 0.2
24/04:00pm 31.7 27.2 14.8 36 10.4 NNW 32 44 17 24 1008.1 1007.7 0.2
24/03:30pm 31.8 28.5 16.1 38 9.9 NNW 28 37 15 20 1008.3 1007.9 0.2
24/03:00pm 31.0 29.6 17.0 43 8.9 N 20 32 11 17 1008.9 1008.5 0.2
24/02:30pm 30.8 28.7 17.1 43 8.7 N 24 35 13 19 1009.6 1009.2 0.2
24/02:00pm 30.9 28.8 17.2 43 8.7 N 24 32 13 17 1010.0 1009.6 0.2
24/01:30pm 29.5 29.1 18.0 50 7.4 N 17 32 9 17 1010.6 1010.2 0.2
24/01:00pm 28.9 29.0 18.4 53 6.8 NE 15 24 8 13 1010.9 1010.5 0.2
24/12:30pm 28.2 28.2 18.0 54 6.5 ENE 15 20 8 11 1010.7 1010.3 0.2
24/12:00pm 26.7 27.2 18.3 60 5.4 ENE 13 19 7 10 1011.1 1010.7 0.0
24/11:30am 25.7 26.3 18.6 65 4.5 E 13 17 7 9 1011.2 1010.8 0.0
24/11:00am 25.5 26.5 17.7 62 4.9 ESE 9 15 5 8 1011.5 1011.1 0.0
24/10:30am 24.5 25.5 18.7 70 3.7 S 11 17 6 9 1011.9 1011.5 0.0
24/10:00am 23.3 24.5 18.2 73 3.2 S 9 15 5 8 1011.6 1011.2 0.0
24/09:30am 22.3 23.6 19.3 83 1.9 S 11 15 6 8 1011.5 1011.1 0.0
24/09:00am 21.4 22.6 19.1 87 1.5 SW 11 15 6 8 1012.4 1012.0 2.0
24/08:30am 21.7 23.1 18.7 83 1.9 SSW 9 11 5 6 1012.2 1011.8 1.8
24/08:00am 20.8 21.8 18.6 87 1.4 ESE 11 17 6 9 1012.0 1011.6 1.8
24/07:30am 20.4 20.3 17.8 85 1.6 SSE 15 19 8 10 1011.2 1010.8 1.6
24/07:00am 21.4 20.2 17.0 76 2.7 WSW 19 22 10 12 1012.6 1012.2 0.8
24/06:30am 22.8 23.8 16.8 69 3.7 S 7 11 4 6 1011.6 1011.2 0.4
24/06:00am 22.3 21.7 15.6 66 4.0 ESE 13 15 7 8 1010.9 1010.5 0.4
24/05:30am 22.2 20.5 15.8 67 3.9 ESE 19 28 10 15 1010.4 1010.0 0.4
24/05:00am 22.2 19.6 16.0 68 3.8 E 24 33 13 18 1010.6 1010.2 0.4
24/04:30am 23.5 21.6 15.8 62 4.7 E 20 26 11 14 1011.0 1010.6 0.2
24/04:00am 25.0 24.4 16.7 60 5.1 ENE 15 19 8 10 1011.1 1010.7 0.0
24/03:30am 27.2 27.9 13.5 42 8.1 S 2 13 1 7 1011.8 1011.4 0.0
24/03:00am 28.0 26.3 11.1 35 9.7 NW 11 13 6 7 1011.8 1011.4 0.0
24/02:30am 28.5 27.3 10.2 32 10.3 SW 7 11 4 6 1011.1 1010.7 0.0
24/02:00am 29.0 26.7 10.6 32 10.5 WSW 13 19 7 10 1011.2 1010.8 0.0
24/01:30am 29.6 27.6 10.2 30 11.0 SSW 11 15 6 8 1011.4 1011.0 0.0
24/01:00am 30.1 28.2 10.6 30 11.2 SSW 11 15 6 8 1010.9 1010.5 0.0
24/12:30am 30.6 28.2 11.5 30 11.1 SSE 15 20 8 11 1010.7 1010.3 0.0
24/12:00am 31.0 27.8 11.4 30 11.4 SSE 19 26 10 14 1010.7 1010.3 0.0
 
Date/Time
EDT
Temp
°C
App
Temp
°C
Dew
Point
Rel
Hum
%
Delta-T
°C
Wind Press
QNH
hPa
Press
MSL
hPa
Rain
since 9 am
mm
Dir
 
Spd
km/h
Gust
km/h
Spd
kts
Gust
kts
23/11:30pm 31.5 28.5 11.8 30 11.6 SSE 19 26 10 14 1010.6 1010.2 0.0
23/11:00pm 31.7 28.1 12.0 30 11.6 SE 22 30 12 16 1010.6 1010.2 0.0
23/10:30pm 31.7 28.6 11.5 29 11.8 S 19 30 10 16 1010.8 1010.4 0.0
23/10:00pm 32.2 27.9 10.8 27 12.4 S 24 32 13 17 1010.2 1009.8 0.0
23/09:30pm 32.4 28.8 10.4 26 12.7 S 20 26 11 14 1011.1 1010.7 0.0
23/09:00pm 33.1 30.4 10.4 25 13.2 SSE 15 28 8 15 1011.5 1011.1 0.0
23/08:30pm 33.4 30.6 10.1 24 13.4 SSE 15 20 8 11 1010.7 1010.3 0.0
23/08:00pm 33.6 29.9 10.2 24 13.6 S 20 28 11 15 1010.1 1009.7 0.0
23/07:30pm 34.1 29.6 10.0 23 13.9 S 24 32 13 17 1009.7 1009.3 0.0
23/07:00pm 34.4 30.0 10.3 23 14.0 S 24 35 13 19 1008.8 1008.4 0.0
23/06:30pm 35.4 30.8 9.7 21 14.9 S 24 33 13 18 1008.3 1007.9 0.0
23/06:00pm 36.0 30.2 9.5 20 15.4 SSW 30 39 16 21 1008.5 1008.1 0.0

Other Formats:

Comma delimited format used in spreadsheet applications
http://www.bom.gov.au/fwo/IDN60801/IDN60801.95695.axf

JavaScript Object Notation format (JSON) in row-major order
http://www.bom.gov.au/fwo/IDN60801/IDN60801.95695.json